createdAt,value
2018-10-21T00:00:09.923Z,10.27
2018-10-21T00:02:37.945Z,10.10
2018-10-21T00:05:07.339Z,10.60
2018-10-21T00:07:35.508Z,10.13
2018-10-21T00:10:04.482Z,10.97
2018-10-21T00:12:32.442Z,10.37
2018-10-21T00:15:00.396Z,10.60
2018-10-21T00:17:28.365Z,10.60
2018-10-21T00:19:56.425Z,11.77
2018-10-21T00:22:24.477Z,13.07
2018-10-21T00:24:52.644Z,12.50
2018-10-21T00:27:20.687Z,12.47
2018-10-21T00:29:48.592Z,12.10
2018-10-21T00:32:16.587Z,11.50
2018-10-21T00:34:44.658Z,10.93
2018-10-21T00:37:12.693Z,10.50
2018-10-21T00:39:40.584Z,11.20
2018-10-21T00:42:08.588Z,10.90
2018-10-21T00:44:36.489Z,10.57
2018-10-21T00:47:06.582Z,11.40
2018-10-21T00:49:34.733Z,11.13
2018-10-21T00:52:02.744Z,11.33
2018-10-21T00:54:30.741Z,11.67
2018-10-21T00:56:58.634Z,11.33
2018-10-21T00:59:26.487Z,11.83
2018-10-21T01:01:54.624Z,11.97
2018-10-21T01:04:22.609Z,11.60
2018-10-21T01:06:50.269Z,11.60
2018-10-21T01:09:17.971Z,11.73
2018-10-21T01:11:45.503Z,11.00
2018-10-21T01:14:13.102Z,11.90
2018-10-21T01:16:40.759Z,11.50
2018-10-21T01:19:09.270Z,11.33
2018-10-21T01:21:36.948Z,11.50
2018-10-21T01:24:05.314Z,12.43
2018-10-21T01:26:32.941Z,12.10
2018-10-21T01:29:00.675Z,11.27
2018-10-21T01:31:28.514Z,12.13
2018-10-21T01:33:56.312Z,11.30
2018-10-21T01:36:24.239Z,11.70
2018-10-21T01:38:52.081Z,12.70
2018-10-21T01:41:20.068Z,12.27
2018-10-21T01:43:48.398Z,11.80
2018-10-21T01:46:16.245Z,11.80
2018-10-21T01:48:44.148Z,12.30
2018-10-21T01:51:12.246Z,12.03
2018-10-21T01:53:40.073Z,11.87
2018-10-21T01:56:08.092Z,12.20
2018-10-21T01:58:36.099Z,11.90
2018-10-21T02:01:04.082Z,10.80
2018-10-21T02:03:31.943Z,11.63
2018-10-21T02:05:59.870Z,11.40
2018-10-21T02:08:28.050Z,11.50
2018-10-21T02:10:56.103Z,11.97
2018-10-21T02:13:24.098Z,11.87
2018-10-21T02:15:51.961Z,12.20
2018-10-21T02:18:19.889Z,11.43
2018-10-21T02:20:48.066Z,13.23
2018-10-21T02:23:16.261Z,11.37
2018-10-21T02:25:44.242Z,11.63
2018-10-21T02:28:12.264Z,11.60
2018-10-21T02:30:40.237Z,10.67
2018-10-21T02:33:08.429Z,11.33
2018-10-21T02:35:36.344Z,11.50
2018-10-21T02:38:04.818Z,11.57
2018-10-21T02:41:43.412Z,11.83
2018-10-21T02:44:13.024Z,11.07
2018-10-21T02:46:41.745Z,11.37
2018-10-21T02:49:10.556Z,12.10
2018-10-21T02:51:38.611Z,11.37
2018-10-21T02:54:07.702Z,11.30
2018-10-21T02:56:35.581Z,11.60
2018-10-21T02:59:03.591Z,11.50
2018-10-21T03:01:31.670Z,11.40
2018-10-21T03:03:59.602Z,11.80
2018-10-21T03:06:27.535Z,11.77
2018-10-21T03:08:58.919Z,12.30
2018-10-21T03:11:26.874Z,12.60
2018-10-21T03:13:54.856Z,12.40
2018-10-21T03:16:22.825Z,12.00
2018-10-21T03:18:50.793Z,12.60
2018-10-21T03:21:18.788Z,12.20
2018-10-21T03:23:46.689Z,13.07
2018-10-21T03:26:14.611Z,12.37
2018-10-21T03:28:42.492Z,12.77
2018-10-21T03:31:10.588Z,12.40
2018-10-21T03:33:38.529Z,11.50
2018-10-21T03:36:06.664Z,11.37
2018-10-21T03:38:34.615Z,11.37
2018-10-21T03:41:02.629Z,11.80
2018-10-21T03:43:30.552Z,11.67
2018-10-21T03:45:58.785Z,11.33
2018-10-21T03:48:26.710Z,12.17
2018-10-21T03:50:54.625Z,11.73
2018-10-21T03:53:22.486Z,11.77
2018-10-21T03:55:50.456Z,11.63
2018-10-21T03:58:18.547Z,12.10
2018-10-21T04:00:46.537Z,11.60
2018-10-21T04:03:14.550Z,11.63
2018-10-21T04:05:42.489Z,11.83
2018-10-21T04:08:10.419Z,12.17
2018-10-21T04:10:38.414Z,12.27
2018-10-21T04:13:06.430Z,12.10
2018-10-21T04:15:34.532Z,12.90
2018-10-21T04:18:02.534Z,12.63
2018-10-21T04:20:30.481Z,12.47
2018-10-21T04:23:00.729Z,11.90
2018-10-21T04:25:29.963Z,11.80
2018-10-21T04:27:58.904Z,11.63
2018-10-21T04:30:28.754Z,11.03
2018-10-21T04:33:04.592Z,11.30
2018-10-21T04:35:33.086Z,11.07
2018-10-21T04:40:17.404Z,11.87
2018-10-21T04:42:45.781Z,11.60
2018-10-21T04:45:16.935Z,12.13
2018-10-21T04:47:45.023Z,11.80
2018-10-21T04:50:13.433Z,13.07
2018-10-21T04:52:41.439Z,12.07
2018-10-21T04:55:10.714Z,12.47
2018-10-21T04:57:40.310Z,11.87
2018-10-21T05:00:09.865Z,11.60
2018-10-21T05:02:37.867Z,11.20
2018-10-21T05:05:07.318Z,11.03
2018-10-21T05:07:35.689Z,11.40
2018-10-21T05:10:04.378Z,11.63
2018-10-21T05:12:32.323Z,11.67
2018-10-21T05:15:00.322Z,12.30
2018-10-21T05:17:28.243Z,11.73
2018-10-21T05:19:56.293Z,12.20
2018-10-21T05:22:24.104Z,11.13
2018-10-21T05:24:52.202Z,12.23
2018-10-21T05:27:20.102Z,11.77
2018-10-21T05:29:48.205Z,12.13
2018-10-21T05:32:16.145Z,11.67
2018-10-21T05:34:44.174Z,11.93
2018-10-21T05:37:12.419Z,11.37
2018-10-21T05:39:40.551Z,12.50
2018-10-21T05:42:08.519Z,12.73
2018-10-21T05:44:36.511Z,12.13
2018-10-21T05:47:04.915Z,12.53
2018-10-21T05:49:33.049Z,11.77
2018-10-21T05:52:01.044Z,12.67
2018-10-21T05:54:29.111Z,12.30
2018-10-21T05:57:06.648Z,11.83
2018-10-21T05:59:34.757Z,11.40
2018-10-21T06:02:02.793Z,11.43
2018-10-21T06:04:30.798Z,11.90
2018-10-21T06:06:58.728Z,11.67
2018-10-21T06:09:26.823Z,12.87
2018-10-21T06:11:54.803Z,12.80
2018-10-21T06:14:23.007Z,11.97
2018-10-21T06:16:57.183Z,12.60
2018-10-21T06:19:30.755Z,13.17
2018-10-21T06:21:58.775Z,12.27
2018-10-21T06:24:27.089Z,12.67
2018-10-21T06:26:56.410Z,13.67
2018-10-21T06:29:24.370Z,13.17
2018-10-21T06:31:52.423Z,13.47
2018-10-21T06:34:20.412Z,13.93
2018-10-21T06:36:48.420Z,13.27
2018-10-21T06:39:16.402Z,13.37
2018-10-21T06:41:44.381Z,11.90
2018-10-21T06:44:12.674Z,11.50
2018-10-21T06:46:40.660Z,12.30
2018-10-21T06:49:08.729Z,11.43
2018-10-21T06:51:36.726Z,11.30
2018-10-21T06:54:13.082Z,11.23
2018-10-21T06:56:41.235Z,11.50
2018-10-21T06:59:09.178Z,12.27
2018-10-21T07:01:37.459Z,11.90
2018-10-21T07:04:05.996Z,11.87
2018-10-21T07:06:33.708Z,12.00
2018-10-21T07:09:04.188Z,11.73
2018-10-21T07:11:31.783Z,11.63
2018-10-21T07:13:59.421Z,11.80
2018-10-21T07:16:27.179Z,11.13
2018-10-21T07:18:54.763Z,12.37
2018-10-21T07:21:22.464Z,12.97
2018-10-21T07:23:50.496Z,13.20
2018-10-21T07:26:18.160Z,15.53
2018-10-21T07:28:45.839Z,13.20
2018-10-21T07:31:13.614Z,15.30
2018-10-21T07:33:41.337Z,15.40
2018-10-21T07:36:09.336Z,14.50
2018-10-21T07:38:37.020Z,14.20
2018-10-21T07:41:05.056Z,14.40
2018-10-21T07:43:32.766Z,13.67
2018-10-21T07:46:00.613Z,14.40
2018-10-21T07:48:28.667Z,15.20
2018-10-21T07:50:56.530Z,15.27
2018-10-21T07:53:24.386Z,15.73
2018-10-21T07:55:52.246Z,14.07
2018-10-21T07:58:19.875Z,15.73
2018-10-21T08:00:47.580Z,15.67
2018-10-21T08:03:15.163Z,16.20
2018-10-21T08:05:54.067Z,16.17
2018-10-21T08:08:25.521Z,17.23
2018-10-21T08:10:53.182Z,16.90
2018-10-21T08:13:22.359Z,16.90
2018-10-21T08:15:50.211Z,16.73
2018-10-21T08:18:17.930Z,15.47
2018-10-21T08:20:46.894Z,17.90
2018-10-21T08:23:16.101Z,17.90
2018-10-21T08:25:44.901Z,19.23
2018-10-21T08:28:12.716Z,20.07
2018-10-21T08:30:40.461Z,18.33
2018-10-21T08:33:08.358Z,18.70
2018-10-21T08:35:36.082Z,17.63
2018-10-21T08:38:04.332Z,19.17
2018-10-21T08:40:31.953Z,18.50
2018-10-21T08:42:59.649Z,18.37
2018-10-21T08:45:27.275Z,18.47
2018-10-21T08:47:54.879Z,17.97
2018-10-21T08:50:22.585Z,17.90
2018-10-21T08:52:50.705Z,18.13
2018-10-21T08:55:18.689Z,17.53
2018-10-21T08:57:46.309Z,17.57
2018-10-21T09:00:16.088Z,17.37
2018-10-21T09:02:44.012Z,18.07
2018-10-21T09:05:14.110Z,17.80
2018-10-21T09:07:42.368Z,19.00
2018-10-21T09:10:11.631Z,18.63
2018-10-21T09:12:39.654Z,17.80
2018-10-21T09:15:10.477Z,17.27
2018-10-21T09:17:38.498Z,17.77
2018-10-21T09:20:09.370Z,17.90
2018-10-21T09:22:37.281Z,18.57
2018-10-21T09:25:05.747Z,16.13
2018-10-21T09:27:41.045Z,16.87
2018-10-21T09:30:11.409Z,15.50
2018-10-21T09:32:39.375Z,15.37
2018-10-21T09:35:08.944Z,16.20
2018-10-21T09:37:36.769Z,15.10
2018-10-21T09:40:05.894Z,16.37
2018-10-21T09:42:33.677Z,16.20
2018-10-21T09:45:01.667Z,13.77
2018-10-21T09:47:29.931Z,13.03
2018-10-21T09:49:58.314Z,14.30
2018-10-21T09:52:26.756Z,13.20
2018-10-21T09:55:05.677Z,12.90
2018-10-21T09:57:33.788Z,12.97
2018-10-21T10:00:02.025Z,12.63
2018-10-21T10:02:35.592Z,13.03
2018-10-21T10:05:03.673Z,12.27
2018-10-21T10:07:31.915Z,11.60
2018-10-21T10:10:00.044Z,11.10
2018-10-21T10:12:28.206Z,9.10
2018-10-21T10:14:56.395Z,8.10
2018-10-21T10:17:25.395Z,7.93
2018-10-21T10:19:53.477Z,7.27
2018-10-21T10:22:21.667Z,8.37
2018-10-21T10:24:50.390Z,8.17
2018-10-21T10:27:18.422Z,8.70
2018-10-21T10:29:53.507Z,9.20
2018-10-21T10:32:24.433Z,9.50
2018-10-21T10:34:52.865Z,7.80
2018-10-21T10:37:21.173Z,5.73
2018-10-21T10:39:49.317Z,6.13
2018-10-21T10:42:17.501Z,5.40
2018-10-21T10:44:45.736Z,5.80
2018-10-21T10:47:13.837Z,5.13
2018-10-21T10:49:42.130Z,11.27
2018-10-21T10:52:10.315Z,5.30
2018-10-21T10:54:38.846Z,14.20
2018-10-21T10:57:07.043Z,6.30
2018-10-21T10:59:35.581Z,5.60
2018-10-21T11:02:03.569Z,5.17
2018-10-21T11:04:31.843Z,4.20
2018-10-21T11:07:00.040Z,5.10
2018-10-21T11:09:28.085Z,10.33
2018-10-21T11:11:56.184Z,5.10
2018-10-21T11:14:24.237Z,9.20
2018-10-21T11:16:52.466Z,4.93
2018-10-21T11:19:23.251Z,6.93
2018-10-21T11:21:51.876Z,9.40
2018-10-21T11:24:20.005Z,4.17
2018-10-21T11:26:48.219Z,3.07
2018-10-21T11:29:16.468Z,2.70
2018-10-21T11:31:44.721Z,2.30
2018-10-21T11:34:13.176Z,9.30
2018-10-21T11:36:41.561Z,9.17
2018-10-21T11:39:10.321Z,8.93
2018-10-21T11:41:38.375Z,4.23
2018-10-21T11:44:06.519Z,4.50
2018-10-21T11:46:34.793Z,4.03
2018-10-21T11:49:03.114Z,4.10
2018-10-21T11:51:31.394Z,3.90
2018-10-21T11:53:59.690Z,5.80
2018-10-21T11:56:27.844Z,5.03
2018-10-21T11:58:55.942Z,8.33
2018-10-21T12:01:24.127Z,9.10
2018-10-21T12:03:52.451Z,6.60
2018-10-21T12:06:20.636Z,5.03
2018-10-21T12:08:48.759Z,4.60
2018-10-21T12:11:17.016Z,5.23
2018-10-21T12:13:45.019Z,5.03
2018-10-21T12:16:13.421Z,5.07
2018-10-21T12:18:41.499Z,4.73
2018-10-21T12:21:09.598Z,5.63
2018-10-21T12:23:37.729Z,8.00
2018-10-21T12:26:05.957Z,5.10
2018-10-21T12:28:34.047Z,5.10
2018-10-21T12:31:02.219Z,5.53
2018-10-21T12:33:34.662Z,5.23
2018-10-21T12:36:02.757Z,7.10
2018-10-21T12:38:30.835Z,5.47
2018-10-21T12:40:58.968Z,7.43
2018-10-21T12:43:27.037Z,8.17
2018-10-21T12:45:55.238Z,7.47
2018-10-21T12:48:23.509Z,7.10
2018-10-21T12:50:51.984Z,5.60
2018-10-21T12:53:20.115Z,4.83
2018-10-21T12:55:50.036Z,4.13
2018-10-21T12:58:18.932Z,5.23
2018-10-21T13:00:47.317Z,6.30
2018-10-21T13:03:15.435Z,6.67
2018-10-21T13:05:43.929Z,4.80
2018-10-21T13:08:12.218Z,4.60
2018-10-21T13:10:40.198Z,5.50
2018-10-21T13:13:08.327Z,4.60
2018-10-21T13:15:36.236Z,6.47
2018-10-21T13:18:05.174Z,7.10
2018-10-21T13:20:33.539Z,5.57
2018-10-21T13:23:01.636Z,6.07
2018-10-21T13:25:29.915Z,4.40
2018-10-21T13:27:58.018Z,5.30
2018-10-21T13:30:26.012Z,4.60
2018-10-21T13:32:53.992Z,4.57
2018-10-21T13:35:22.490Z,4.30
2018-10-21T13:37:52.276Z,4.63
2018-10-21T13:40:21.653Z,4.80
2018-10-21T13:42:49.400Z,4.80
2018-10-21T13:45:17.043Z,5.87
2018-10-21T13:47:44.911Z,4.20
2018-10-21T13:50:12.608Z,4.07
2018-10-21T13:52:40.359Z,4.30
2018-10-21T13:55:08.627Z,4.57
2018-10-21T13:57:39.061Z,6.67
2018-10-21T14:00:07.827Z,5.00
2018-10-21T14:02:35.685Z,4.17
2018-10-21T14:05:03.537Z,3.80
2018-10-21T14:07:32.756Z,3.57
2018-10-21T14:10:00.413Z,4.00
2018-10-21T14:12:28.056Z,3.93
2018-10-21T14:14:56.030Z,3.60
2018-10-21T14:17:23.672Z,3.97
2018-10-21T14:19:51.407Z,3.60
2018-10-21T14:22:19.209Z,3.43
2018-10-21T14:24:47.149Z,3.70
2018-10-21T14:27:14.744Z,3.70
2018-10-21T14:29:42.402Z,3.40
2018-10-21T14:32:10.206Z,3.77
2018-10-21T14:34:37.885Z,3.40
2018-10-21T14:37:06.538Z,3.20
2018-10-21T14:39:36.167Z,3.90
2018-10-21T14:42:04.252Z,3.43
2018-10-21T14:44:32.084Z,3.40
2018-10-21T14:46:59.907Z,3.30
2018-10-21T14:49:27.596Z,3.73
2018-10-21T14:51:55.601Z,3.70
2018-10-21T14:54:23.335Z,3.20
2018-10-21T14:56:51.107Z,3.50
2018-10-21T14:59:18.793Z,3.50
2018-10-21T15:01:46.492Z,8.73
2018-10-21T15:04:14.277Z,3.70
2018-10-21T15:06:42.058Z,4.30
2018-10-21T15:09:11.649Z,3.77
2018-10-21T15:11:39.838Z,4.03
2018-10-21T15:14:07.809Z,3.70
2018-10-21T15:16:36.568Z,4.00
2018-10-21T15:19:04.525Z,3.73
2018-10-21T15:21:32.424Z,4.13
2018-10-21T15:24:00.704Z,3.70
2018-10-21T15:26:28.670Z,4.40
2018-10-21T15:28:56.658Z,4.40
2018-10-21T15:31:24.516Z,3.40
2018-10-21T15:33:52.812Z,4.13
2018-10-21T15:36:20.512Z,3.83
2018-10-21T15:38:48.308Z,4.30
2018-10-21T15:41:16.317Z,3.90
2018-10-21T15:43:44.089Z,4.00
2018-10-21T15:46:17.710Z,4.23
2018-10-21T15:48:45.805Z,4.20
2018-10-21T15:51:13.580Z,3.87
2018-10-21T15:53:41.469Z,4.77
2018-10-21T15:56:09.489Z,4.30
2018-10-21T15:58:37.145Z,4.70
2018-10-21T16:01:05.071Z,4.80
2018-10-21T16:03:34.359Z,4.03
2018-10-21T16:06:02.251Z,4.33
2018-10-21T16:08:29.979Z,4.30
2018-10-21T16:10:57.602Z,4.27
2018-10-21T16:13:25.829Z,4.80
2018-10-21T16:15:53.608Z,5.10
2018-10-21T16:18:21.268Z,4.90
2018-10-21T16:20:49.259Z,4.70
2018-10-21T16:23:17.256Z,4.80
2018-10-21T16:25:45.036Z,4.87
2018-10-21T16:28:13.304Z,5.77
2018-10-21T16:30:41.019Z,7.00
2018-10-21T16:33:08.745Z,7.63
2018-10-21T16:35:36.648Z,7.20
2018-10-21T16:38:05.568Z,7.10
2018-10-21T16:40:33.458Z,7.20
2018-10-21T16:43:01.195Z,6.50
2018-10-21T16:45:28.896Z,6.77
2018-10-21T16:47:56.748Z,6.80
2018-10-21T16:50:24.594Z,9.23
2018-10-21T16:52:53.140Z,7.63
2018-10-21T16:55:21.493Z,8.37
2018-10-21T16:57:49.273Z,7.97
2018-10-21T17:00:18.200Z,8.80
2018-10-21T17:02:46.069Z,7.83
2018-10-21T17:05:13.829Z,7.27
2018-10-21T17:07:41.495Z,7.20
2018-10-21T17:10:10.499Z,7.10
2018-10-21T17:12:38.450Z,6.90
2018-10-21T17:15:07.409Z,7.70
2018-10-21T17:17:35.410Z,6.53
2018-10-21T17:20:03.871Z,6.47
2018-10-21T17:22:32.331Z,7.50
2018-10-21T17:25:01.002Z,7.83
2018-10-21T17:27:29.307Z,6.97
2018-10-21T17:29:57.714Z,8.97
2018-10-21T17:32:25.700Z,9.57
2018-10-21T17:34:53.895Z,9.60
2018-10-21T17:37:21.737Z,9.80
2018-10-21T17:39:49.745Z,10.30
2018-10-21T17:42:17.546Z,10.10
2018-10-21T17:44:45.616Z,10.10
2018-10-21T17:47:13.551Z,9.30
2018-10-21T17:49:41.786Z,10.40
2018-10-21T17:52:10.068Z,9.40
2018-10-21T17:54:37.751Z,9.90
2018-10-21T17:57:05.873Z,9.63
2018-10-21T17:59:34.022Z,10.20
2018-10-21T18:02:01.737Z,10.17
2018-10-21T18:04:29.667Z,9.23
2018-10-21T18:06:57.657Z,9.07
2018-10-21T18:09:25.675Z,8.37
2018-10-21T18:11:53.551Z,8.17
2018-10-21T18:14:21.475Z,8.60
2018-10-21T18:16:49.219Z,10.73
2018-10-21T18:19:17.091Z,10.43
2018-10-21T18:21:44.715Z,9.83
2018-10-21T18:24:12.722Z,9.27
2018-10-21T18:26:40.561Z,9.53
2018-10-21T18:29:08.416Z,9.90
2018-10-21T18:31:36.188Z,10.10
2018-10-21T18:34:03.965Z,10.37
2018-10-21T18:36:31.795Z,10.17
2018-10-21T18:38:59.610Z,10.20
2018-10-21T18:41:27.393Z,10.13
2018-10-21T18:43:55.875Z,10.40
2018-10-21T18:46:23.565Z,10.20
2018-10-21T18:48:51.397Z,9.90
2018-10-21T18:51:19.395Z,9.77
2018-10-21T18:53:47.491Z,9.30
2018-10-21T18:56:15.170Z,9.00
2018-10-21T18:58:42.954Z,8.30
2018-10-21T19:01:10.593Z,9.03
2018-10-21T19:03:38.295Z,8.73
2018-10-21T19:06:05.973Z,8.63
2018-10-21T19:08:33.791Z,8.73
2018-10-21T19:11:01.504Z,8.23
2018-10-21T19:13:29.314Z,9.27
2018-10-21T19:15:56.961Z,8.70
2018-10-21T19:18:24.681Z,8.83
2018-10-21T19:20:52.800Z,8.77
2018-10-21T19:23:20.497Z,9.30
2018-10-21T19:25:48.338Z,8.57
2018-10-21T19:28:16.133Z,8.90
2018-10-21T19:30:43.909Z,8.87
2018-10-21T19:33:11.567Z,9.80
2018-10-21T19:35:39.380Z,9.23
2018-10-21T19:38:07.468Z,9.13
2018-10-21T19:43:03.245Z,9.30
2018-10-21T19:45:31.266Z,9.10
2018-10-21T19:47:59.338Z,8.87
2018-10-21T19:50:27.539Z,9.27
2018-10-21T19:52:55.594Z,9.30
2018-10-21T19:55:23.681Z,9.20
2018-10-21T19:57:51.800Z,8.90
2018-10-21T20:00:20.139Z,8.40
2018-10-21T20:02:48.332Z,9.27
2018-10-21T20:05:16.428Z,9.00
2018-10-21T20:07:44.926Z,9.50
2018-10-21T20:10:14.369Z,9.47
2018-10-21T20:12:42.337Z,9.87
2018-10-21T20:15:11.354Z,10.87
2018-10-21T20:17:40.112Z,11.83
2018-10-21T20:20:09.511Z,14.03
2018-10-21T20:22:37.653Z,14.00
2018-10-21T20:25:07.048Z,13.77
2018-10-21T20:27:35.162Z,12.77
2018-10-21T20:30:03.685Z,11.67
2018-10-21T20:32:32.527Z,10.30
2018-10-21T20:35:00.554Z,10.10
2018-10-21T20:37:28.998Z,11.10
2018-10-21T20:39:57.323Z,10.07
2018-10-21T20:42:25.788Z,10.10
2018-10-21T20:44:54.097Z,9.83
2018-10-21T20:47:23.863Z,9.60
2018-10-21T20:49:51.876Z,9.40
2018-10-21T20:52:19.883Z,9.43
2018-10-21T20:54:48.903Z,9.00
2018-10-21T20:57:16.948Z,9.97
2018-10-21T20:59:46.099Z,9.43
2018-10-21T21:02:14.987Z,9.90
2018-10-21T21:04:43.197Z,9.13
2018-10-21T21:07:12.043Z,9.17
2018-10-21T21:09:40.663Z,8.53
2018-10-21T21:12:08.790Z,8.30
2018-10-21T21:14:36.838Z,8.67
2018-10-21T21:17:05.304Z,8.50
2018-10-21T21:19:33.677Z,8.40
2018-10-21T21:22:02.028Z,8.70
2018-10-21T21:24:30.080Z,9.40
2018-10-21T21:26:58.111Z,9.13
2018-10-21T21:29:26.094Z,9.90
2018-10-21T21:31:54.227Z,10.03
2018-10-21T21:34:22.218Z,9.60
2018-10-21T21:36:50.307Z,10.63
2018-10-21T21:39:18.308Z,9.27
2018-10-21T21:41:46.901Z,10.00
2018-10-21T21:44:14.788Z,10.27
2018-10-21T21:46:43.370Z,10.20
2018-10-21T21:49:12.306Z,9.83
2018-10-21T21:51:40.430Z,10.27
2018-10-21T21:54:11.051Z,10.37
2018-10-21T21:56:39.510Z,8.93
2018-10-21T21:59:08.076Z,9.33
2018-10-21T22:01:36.131Z,9.57
2018-10-21T22:04:04.256Z,9.40
2018-10-21T22:06:32.178Z,9.57
2018-10-21T22:09:00.258Z,11.07
2018-10-21T22:11:28.575Z,9.20
2018-10-21T22:13:56.477Z,9.53
2018-10-21T22:16:24.534Z,10.23
2018-10-21T22:18:52.641Z,9.23
2018-10-21T22:21:20.687Z,10.07
2018-10-21T22:23:48.724Z,12.77
2018-10-21T22:26:16.725Z,10.20
2018-10-21T22:28:44.733Z,11.07
2018-10-21T22:31:12.917Z,9.53
2018-10-21T22:33:40.854Z,9.97
2018-10-21T22:36:09.109Z,9.63
2018-10-21T22:38:36.989Z,10.43
2018-10-21T22:41:04.937Z,10.07
2018-10-21T22:43:32.963Z,9.83
2018-10-21T22:46:01.932Z,10.83
2018-10-21T22:48:33.430Z,10.67
2018-10-21T22:51:01.739Z,11.70
2018-10-21T22:53:30.128Z,10.10
2018-10-21T22:55:57.987Z,9.67
2018-10-21T22:58:26.024Z,9.80
2018-10-21T23:00:54.537Z,10.20
2018-10-21T23:03:22.598Z,9.67
2018-10-21T23:05:50.574Z,9.60
2018-10-21T23:08:18.577Z,9.77
2018-10-21T23:10:46.573Z,9.93
2018-10-21T23:13:14.724Z,10.03
2018-10-21T23:15:42.773Z,9.30
2018-10-21T23:18:10.707Z,9.87
2018-10-21T23:20:38.780Z,8.97
2018-10-21T23:23:06.904Z,10.33
2018-10-21T23:25:34.914Z,9.77
2018-10-21T23:28:02.940Z,9.53
2018-10-21T23:30:31.012Z,9.40
2018-10-21T23:32:59.085Z,9.40
2018-10-21T23:35:27.241Z,9.27
2018-10-21T23:37:55.252Z,9.43
2018-10-21T23:40:23.509Z,9.63
2018-10-21T23:42:51.662Z,9.70
2018-10-21T23:45:19.678Z,14.77
2018-10-21T23:47:47.800Z,13.10
2018-10-21T23:50:15.797Z,11.87
2018-10-21T23:52:43.796Z,11.97
2018-10-21T23:55:11.730Z,12.40
2018-10-21T23:57:39.708Z,10.60
